createdAt,value
2019-05-17T00:00:30.474Z,83.42
2019-05-17T00:04:37.273Z,82.83
2019-05-17T00:08:43.942Z,82.76
2019-05-17T00:12:50.777Z,83.14
2019-05-17T00:16:57.490Z,83.52
2019-05-17T00:21:04.200Z,83.74
2019-05-17T00:25:11.631Z,84.15
2019-05-17T00:29:18.374Z,84.32
2019-05-17T00:33:27.146Z,83.63
2019-05-17T00:37:33.726Z,83.54
2019-05-17T00:41:40.487Z,83.37
2019-05-17T00:45:47.215Z,83.86
2019-05-17T00:49:54.035Z,84.28
2019-05-17T00:54:00.821Z,84.20
2019-05-17T00:58:07.602Z,83.19
2019-05-17T01:02:16.175Z,84.46
2019-05-17T01:06:22.708Z,84.39
2019-05-17T01:10:29.414Z,83.19
2019-05-17T01:14:37.250Z,83.45
2019-05-17T01:18:44.124Z,83.87
2019-05-17T01:22:50.807Z,82.78
2019-05-17T01:26:57.549Z,83.46
2019-05-17T01:31:06.472Z,82.57
2019-05-17T01:35:12.726Z,82.46
2019-05-17T01:39:21.494Z,82.88
2019-05-17T01:43:27.889Z,82.52
2019-05-17T01:47:36.595Z,82.91
2019-05-17T01:51:43.076Z,82.45
2019-05-17T01:55:49.788Z,82.75
2019-05-17T01:59:57.160Z,82.70
2019-05-17T02:04:03.990Z,82.72
2019-05-17T02:08:10.698Z,82.61
2019-05-17T02:12:17.488Z,83.34
2019-05-17T02:16:26.617Z,82.90
2019-05-17T02:20:32.548Z,82.74
2019-05-17T02:24:39.274Z,82.60
2019-05-17T02:28:46.012Z,82.69
2019-05-17T02:32:54.229Z,82.17
2019-05-17T02:37:02.986Z,82.30
2019-05-17T02:41:09.690Z,82.64
2019-05-17T02:45:19.748Z,82.71
2019-05-17T02:49:26.875Z,83.11
2019-05-17T02:53:34.548Z,82.19
2019-05-17T02:57:43.258Z,82.63
2019-05-17T03:01:52.501Z,83.21
2019-05-17T03:05:58.117Z,82.95
2019-05-17T03:10:18.299Z,83.36
2019-05-17T03:14:15.407Z,83.04
2019-05-17T03:18:25.107Z,83.33
2019-05-17T03:22:33.336Z,83.63
2019-05-17T03:26:42.887Z,83.39
2019-05-17T03:30:56.286Z,83.09
2019-05-17T03:35:06.191Z,83.53
2019-05-17T03:39:08.828Z,83.57
2019-05-17T03:43:15.640Z,83.44
2019-05-17T03:47:22.855Z,84.04
2019-05-17T03:51:29.722Z,84.42
2019-05-17T03:55:36.530Z,83.63
2019-05-17T03:59:43.282Z,83.63
2019-05-17T04:03:52.728Z,83.72
2019-05-17T04:07:58.405Z,83.99
2019-05-17T04:12:05.148Z,83.87
2019-05-17T04:16:13.879Z,83.71
2019-05-17T04:20:22.355Z,84.29
2019-05-17T04:24:32.433Z,84.23
2019-05-17T04:28:39.321Z,83.81
2019-05-17T04:32:45.976Z,83.30
2019-05-17T04:36:52.651Z,83.62
2019-05-17T04:41:02.861Z,83.39
2019-05-17T04:45:08.077Z,83.45
2019-05-17T04:49:14.910Z,83.18
2019-05-17T04:53:23.402Z,83.65
2019-05-17T04:57:32.558Z,83.61
2019-05-17T05:01:38.655Z,83.74
2019-05-17T05:05:45.373Z,83.35
2019-05-17T05:09:52.502Z,83.40
2019-05-17T05:14:02.456Z,84.07
2019-05-17T05:18:07.965Z,84.12
2019-05-17T05:22:17.575Z,83.86
2019-05-17T05:26:23.155Z,83.89
2019-05-17T05:30:32.786Z,84.82
2019-05-17T05:34:39.515Z,84.35
2019-05-17T05:38:46.254Z,84.34
2019-05-17T05:42:53.026Z,85.27
2019-05-17T05:47:02.154Z,83.97
2019-05-17T05:51:08.769Z,83.08
2019-05-17T05:55:15.661Z,81.83
2019-05-17T05:59:22.582Z,82.18
2019-05-17T06:03:29.329Z,80.76
2019-05-17T06:07:36.148Z,81.97
2019-05-17T06:11:42.902Z,82.56
2019-05-17T06:15:51.646Z,83.08
2019-05-17T06:19:58.004Z,82.78
2019-05-17T06:24:05.827Z,82.06
2019-05-17T06:28:12.542Z,82.85
2019-05-17T06:32:22.761Z,82.85
2019-05-17T06:36:28.606Z,82.63
2019-05-17T06:40:35.319Z,82.40
2019-05-17T06:44:42.066Z,82.37
2019-05-17T06:48:48.745Z,82.28
2019-05-17T06:52:55.510Z,81.89
2019-05-17T06:57:03.451Z,82.01
2019-05-17T07:01:10.320Z,82.78
2019-05-17T07:05:21.454Z,82.16
2019-05-17T07:09:30.218Z,81.86
2019-05-17T07:13:39.419Z,82.25
2019-05-17T07:17:45.572Z,82.03
2019-05-17T07:21:52.284Z,81.74
2019-05-17T07:25:59.623Z,82.30
2019-05-17T07:30:10.336Z,81.67
2019-05-17T07:34:17.322Z,81.57
2019-05-17T07:38:24.156Z,81.58
2019-05-17T07:42:31.899Z,81.58
2019-05-17T07:46:40.170Z,81.42
2019-05-17T07:50:50.467Z,80.95
2019-05-17T07:55:02.278Z,80.72
2019-05-17T07:59:06.210Z,81.99
2019-05-17T08:03:13.683Z,80.87
2019-05-17T08:07:20.529Z,80.39
2019-05-17T08:11:27.256Z,80.20
2019-05-17T08:15:34.020Z,80.65
2019-05-17T08:19:40.775Z,79.63
2019-05-17T08:23:47.596Z,79.39
2019-05-17T08:27:54.482Z,78.90
2019-05-17T08:32:01.238Z,78.20
2019-05-17T08:36:09.321Z,77.95
2019-05-17T08:40:16.334Z,77.68
2019-05-17T08:44:23.264Z,77.48
2019-05-17T08:48:29.983Z,76.66
2019-05-17T08:52:36.759Z,75.54
2019-05-17T08:56:43.489Z,75.39
2019-05-17T09:00:50.637Z,73.95
2019-05-17T09:05:00.260Z,71.91
2019-05-17T09:09:09.988Z,71.54
2019-05-17T09:13:16.283Z,70.68
2019-05-17T09:17:23.183Z,71.07
2019-05-17T09:21:31.404Z,69.46
2019-05-17T09:25:56.445Z,65.82
2019-05-17T09:30:04.456Z,66.14
2019-05-17T09:34:11.418Z,66.08
2019-05-17T09:38:20.377Z,64.70
2019-05-17T09:42:29.995Z,65.02
2019-05-17T09:46:39.613Z,63.75
2019-05-17T09:50:46.435Z,64.86
2019-05-17T09:54:53.195Z,61.89
2019-05-17T09:59:02.894Z,62.61
2019-05-17T10:03:10.098Z,63.56
2019-05-17T10:07:16.834Z,62.99
2019-05-17T10:11:23.639Z,63.59
2019-05-17T10:15:30.518Z,62.61
2019-05-17T10:19:40.324Z,61.17
2019-05-17T10:23:49.680Z,61.02
2019-05-17T10:28:00.597Z,61.22
2019-05-17T10:32:07.744Z,59.52
2019-05-17T10:36:14.549Z,60.22
2019-05-17T10:40:24.541Z,58.88
2019-05-17T10:44:46.231Z,59.92
2019-05-17T10:48:44.476Z,59.80
2019-05-17T10:52:52.417Z,59.79
2019-05-17T10:56:59.757Z,57.56
2019-05-17T11:01:06.945Z,56.91
2019-05-17T11:05:14.078Z,57.11
2019-05-17T11:09:20.909Z,57.10
2019-05-17T11:13:27.627Z,58.23
2019-05-17T11:17:34.568Z,56.84
2019-05-17T11:21:41.353Z,56.40
2019-05-17T11:25:48.482Z,55.29
2019-05-17T11:29:55.325Z,54.94
2019-05-17T11:34:02.845Z,54.04
2019-05-17T11:38:09.741Z,53.09
2019-05-17T11:42:16.434Z,50.37
2019-05-17T11:46:35.358Z,48.62
2019-05-17T11:50:32.023Z,48.88
2019-05-17T11:54:38.759Z,49.47
2019-05-17T11:58:46.538Z,51.25
2019-05-17T12:02:53.222Z,50.07
2019-05-17T12:06:59.929Z,51.36
2019-05-17T12:11:06.937Z,51.80
2019-05-17T12:15:13.991Z,52.91
2019-05-17T12:19:21.191Z,50.33
2019-05-17T12:23:27.879Z,47.64
2019-05-17T12:27:34.597Z,46.49
2019-05-17T12:31:41.540Z,44.04
2019-05-17T12:35:53.472Z,45.32
2019-05-17T12:40:00.288Z,44.03
2019-05-17T12:44:07.002Z,47.18
2019-05-17T12:48:13.892Z,47.21
2019-05-17T12:52:20.655Z,47.75
2019-05-17T12:56:27.605Z,48.96
2019-05-17T13:00:34.620Z,47.85
2019-05-17T13:04:42.732Z,48.99
2019-05-17T13:08:50.039Z,48.12
2019-05-17T13:12:56.796Z,49.76
2019-05-17T13:17:03.914Z,49.34
2019-05-17T13:21:10.823Z,49.35
2019-05-17T13:25:17.771Z,50.24
2019-05-17T13:29:24.587Z,49.73
2019-05-17T13:33:31.515Z,49.12
2019-05-17T13:37:38.385Z,49.30
2019-05-17T13:41:45.230Z,48.42
2019-05-17T13:45:51.980Z,46.13
2019-05-17T13:49:58.878Z,47.51
2019-05-17T13:54:05.717Z,48.57
2019-05-17T13:58:12.562Z,47.21
2019-05-17T14:02:19.306Z,46.20
2019-05-17T14:06:26.131Z,44.96
2019-05-17T14:10:32.914Z,48.15
2019-05-17T14:14:39.661Z,46.64
2019-05-17T14:18:46.497Z,46.48
2019-05-17T14:22:53.571Z,46.47
2019-05-17T14:27:00.437Z,48.31
2019-05-17T14:31:07.475Z,47.98
2019-05-17T14:35:14.419Z,47.89
2019-05-17T14:39:21.184Z,47.89
2019-05-17T14:43:31.441Z,48.43
2019-05-17T14:47:36.617Z,47.19
2019-05-17T14:51:43.520Z,47.10
2019-05-17T14:56:08.400Z,47.51
2019-05-17T15:00:15.619Z,46.64
2019-05-17T15:04:24.607Z,47.58
2019-05-17T15:08:31.495Z,47.43
2019-05-17T15:12:38.348Z,46.14
2019-05-17T15:16:45.258Z,47.22
2019-05-17T15:20:52.085Z,46.49
2019-05-17T15:24:58.836Z,46.74
2019-05-17T15:29:05.628Z,47.60
2019-05-17T15:33:12.367Z,46.87
2019-05-17T15:37:19.266Z,46.71
2019-05-17T15:41:26.058Z,46.53
2019-05-17T15:45:32.739Z,46.49
2019-05-17T15:49:39.712Z,45.82
2019-05-17T15:53:46.901Z,46.16
2019-05-17T15:57:53.637Z,45.84
2019-05-17T16:02:00.510Z,47.01
2019-05-17T16:06:07.387Z,46.91
2019-05-17T16:10:14.460Z,46.25
2019-05-17T16:14:22.730Z,46.15
2019-05-17T16:18:29.472Z,46.80
2019-05-17T16:22:36.293Z,48.29
2019-05-17T16:26:44.203Z,47.51
2019-05-17T16:30:52.590Z,47.76
2019-05-17T16:34:59.380Z,47.91
2019-05-17T16:39:08.570Z,48.22
2019-05-17T16:43:18.510Z,48.17
2019-05-17T16:47:23.824Z,48.39
2019-05-17T16:51:31.047Z,48.33
2019-05-17T16:55:37.764Z,48.91
2019-05-17T16:59:44.448Z,48.75
2019-05-17T17:03:51.197Z,48.80
2019-05-17T17:07:57.885Z,49.04
2019-05-17T17:12:04.654Z,48.77
2019-05-17T17:16:11.842Z,48.68
2019-05-17T17:20:18.839Z,48.54
2019-05-17T17:24:25.599Z,49.48
2019-05-17T17:28:32.379Z,49.25
2019-05-17T17:32:39.080Z,49.80
2019-05-17T17:36:45.851Z,49.36
2019-05-17T17:40:53.561Z,49.70
2019-05-17T17:45:00.270Z,49.54
2019-05-17T17:49:07.081Z,50.37
2019-05-17T17:53:13.841Z,50.13
2019-05-17T17:57:21.634Z,50.20
2019-05-17T18:01:28.359Z,51.73
2019-05-17T18:05:35.083Z,50.91
2019-05-17T18:09:41.877Z,51.36
2019-05-17T18:13:48.614Z,52.44
2019-05-17T18:17:55.317Z,51.97
2019-05-17T18:22:02.068Z,51.91
2019-05-17T18:26:08.992Z,52.13
2019-05-17T18:30:16.793Z,52.62
2019-05-17T18:34:23.706Z,52.66
2019-05-17T18:38:33.049Z,52.90
2019-05-17T18:42:40.182Z,53.23
2019-05-17T18:46:47.926Z,53.67
2019-05-17T18:50:54.696Z,53.76
2019-05-17T18:55:01.360Z,53.79
2019-05-17T18:59:09.801Z,53.65
2019-05-17T19:03:16.511Z,54.15
2019-05-17T19:07:23.222Z,54.36
2019-05-17T19:11:30.270Z,54.59
2019-05-17T19:15:37.026Z,55.12
2019-05-17T19:19:43.777Z,55.20
2019-05-17T19:23:50.452Z,55.32
2019-05-17T19:27:57.251Z,55.88
2019-05-17T19:32:04.191Z,55.90
2019-05-17T19:36:12.050Z,56.37
2019-05-17T19:40:18.976Z,56.86
2019-05-17T19:44:25.753Z,57.50
2019-05-17T19:48:32.497Z,58.43
2019-05-17T19:52:39.425Z,58.84
2019-05-17T19:56:46.875Z,59.36
2019-05-17T20:00:59.074Z,59.48
2019-05-17T20:05:06.341Z,59.53
2019-05-17T20:09:17.665Z,59.58
2019-05-17T20:13:25.541Z,59.80
2019-05-17T20:17:33.202Z,59.91
2019-05-17T20:21:39.937Z,60.05
2019-05-17T20:25:46.869Z,60.92
2019-05-17T20:29:53.800Z,61.22
2019-05-17T20:34:00.506Z,61.23
2019-05-17T20:38:07.298Z,61.64
2019-05-17T20:42:14.077Z,61.18
2019-05-17T20:46:20.927Z,62.14
2019-05-17T20:50:27.590Z,63.09
2019-05-17T20:54:34.425Z,64.50
2019-05-17T20:58:42.604Z,66.23
2019-05-17T21:02:49.548Z,67.29
2019-05-17T21:06:56.370Z,68.10
2019-05-17T21:11:04.750Z,68.62
2019-05-17T21:15:11.939Z,70.18
2019-05-17T21:19:21.110Z,71.79
2019-05-17T21:23:27.879Z,71.28
2019-05-17T21:27:34.659Z,72.02
2019-05-17T21:31:41.403Z,72.86
2019-05-17T21:35:48.219Z,71.87
2019-05-17T21:39:55.016Z,71.87
2019-05-17T21:44:01.797Z,72.39
2019-05-17T21:48:08.513Z,71.60
2019-05-17T21:52:15.228Z,72.41
2019-05-17T21:56:21.941Z,71.88
2019-05-17T22:01:12.040Z,71.88
2019-05-17T22:05:18.810Z,72.65
2019-05-17T22:09:26.705Z,72.88
2019-05-17T22:13:33.434Z,73.06
2019-05-17T22:17:40.120Z,72.27
2019-05-17T22:21:46.993Z,72.57
2019-05-17T22:25:53.760Z,73.13
2019-05-17T22:30:00.529Z,73.54
2019-05-17T22:34:07.286Z,73.35
2019-05-17T22:38:14.111Z,73.63
2019-05-17T22:42:20.816Z,74.10
2019-05-17T22:46:36.033Z,73.79
2019-05-17T22:50:36.029Z,74.23
2019-05-17T22:54:42.770Z,74.15
2019-05-17T22:58:49.584Z,74.37
2019-05-17T23:02:56.318Z,74.90
2019-05-17T23:07:03.076Z,75.21
2019-05-17T23:11:09.771Z,75.40
2019-05-17T23:15:16.803Z,75.73
2019-05-17T23:19:23.643Z,76.29
2019-05-17T23:23:30.719Z,76.59
2019-05-17T23:27:37.505Z,77.32
2019-05-17T23:31:45.019Z,77.28
2019-05-17T23:35:51.781Z,77.73
2019-05-17T23:40:01.467Z,77.85
2019-05-17T23:44:09.274Z,78.84
2019-05-17T23:48:16.041Z,78.60
2019-05-17T23:52:22.727Z,78.53
2019-05-17T23:56:29.410Z,79.07
